createdAt,value
2019-02-20T00:02:01.944Z,99716.52
2019-02-20T00:04:34.965Z,99712.88
2019-02-20T00:07:07.807Z,99708.20
2019-02-20T00:09:36.887Z,99710.68
2019-02-20T00:12:07.187Z,99704.65
2019-02-20T00:14:38.544Z,99709.43
2019-02-20T00:17:07.664Z,99707.45
2019-02-20T00:19:36.780Z,99715.31
2019-02-20T00:22:08.035Z,99711.11
2019-02-20T00:24:37.241Z,99710.89
2019-02-20T00:27:06.363Z,99712.84
2019-02-20T00:29:37.530Z,99711.09
2019-02-20T00:32:07.519Z,99705.53
2019-02-20T00:34:38.718Z,99706.98
2019-02-20T00:37:07.816Z,99711.25
2019-02-20T00:39:36.928Z,99716.58
2019-02-20T00:42:06.061Z,99718.69
2019-02-20T00:45:07.120Z,99715.60
2019-02-20T00:47:49.554Z,99715.45
2019-02-20T00:50:22.233Z,99714.92
2019-02-20T00:53:11.169Z,99714.68
2019-02-20T00:55:40.270Z,99713.84
2019-02-20T00:58:09.387Z,99719.95
2019-02-20T01:00:43.348Z,99720.48
2019-02-20T01:03:15.585Z,99728.55
2019-02-20T01:05:44.641Z,99723.88
2019-02-20T01:08:15.288Z,99719.52
2019-02-20T01:10:44.453Z,99723.66
2019-02-20T01:13:13.601Z,99722.64
2019-02-20T01:15:42.793Z,99731.68
2019-02-20T01:18:11.910Z,99734.73
2019-02-20T01:20:41.037Z,99732.69
2019-02-20T01:23:10.117Z,99734.55
2019-02-20T01:25:43.082Z,99740.39
2019-02-20T01:28:12.663Z,99728.44
2019-02-20T01:30:43.380Z,99724.86
2019-02-20T01:33:16.557Z,99732.91
2019-02-20T01:35:47.322Z,99736.19
2019-02-20T01:38:18.245Z,99736.33
2019-02-20T01:40:48.512Z,99725.49
2019-02-20T01:43:17.801Z,99726.85
2019-02-20T01:45:46.918Z,99724.41
2019-02-20T01:48:15.972Z,99726.81
2019-02-20T01:50:45.059Z,99719.13
2019-02-20T01:53:14.373Z,99718.23
2019-02-20T01:55:44.092Z,99723.40
2019-02-20T01:58:13.406Z,99720.27
2019-02-20T02:00:42.611Z,99717.32
2019-02-20T02:03:16.055Z,99714.14
2019-02-20T02:05:45.264Z,99709.95
2019-02-20T02:08:16.972Z,99711.48
2019-02-20T02:10:46.172Z,99705.58
2019-02-20T02:13:16.815Z,99706.86
2019-02-20T02:15:47.133Z,99708.86
2019-02-20T02:18:16.341Z,99710.66
2019-02-20T02:20:45.480Z,99712.04
2019-02-20T02:23:19.876Z,99714.69
2019-02-20T02:25:47.789Z,99709.78
2019-02-20T02:28:18.029Z,99710.53
2019-02-20T02:30:49.137Z,99708.81
2019-02-20T02:33:18.339Z,99705.74
2019-02-20T02:35:49.875Z,99711.13
2019-02-20T02:38:18.959Z,99716.09
2019-02-20T02:40:49.329Z,99706.30
2019-02-20T02:43:18.385Z,99711.17
2019-02-20T02:45:47.507Z,99709.30
2019-02-20T02:48:16.587Z,99709.01
2019-02-20T02:50:45.807Z,99699.44
2019-02-20T02:53:14.962Z,99699.09
2019-02-20T02:55:44.100Z,99706.69
2019-02-20T02:58:15.456Z,99704.25
2019-02-20T03:00:44.533Z,99698.42
2019-02-20T03:03:13.663Z,99702.69
2019-02-20T03:05:42.835Z,99694.56
2019-02-20T03:08:11.943Z,99691.49
2019-02-20T03:10:41.091Z,99696.63
2019-02-20T03:13:11.216Z,99693.77
2019-02-20T03:15:40.330Z,99698.72
2019-02-20T03:18:09.429Z,99695.63
2019-02-20T03:20:38.493Z,99697.72
2019-02-20T03:23:07.673Z,99698.75
2019-02-20T03:25:36.736Z,99691.31
2019-02-20T03:28:05.881Z,99688.22
2019-02-20T03:30:34.985Z,99659.25
2019-02-20T03:33:04.119Z,99690.88
2019-02-20T03:35:35.586Z,99698.55
2019-02-20T03:38:07.015Z,99696.28
2019-02-20T03:40:37.374Z,99699.92
2019-02-20T03:43:06.516Z,99700.79
2019-02-20T03:45:35.564Z,99703.31
2019-02-20T03:48:04.708Z,99702.75
2019-02-20T03:50:33.807Z,99705.66
2019-02-20T03:53:05.140Z,99709.09
2019-02-20T03:55:34.210Z,99706.92
2019-02-20T03:58:04.404Z,99704.70
2019-02-20T04:00:33.809Z,99707.00
2019-02-20T04:03:02.949Z,99707.88
2019-02-20T04:05:32.055Z,99713.17
2019-02-20T04:08:01.207Z,99709.22
2019-02-20T04:10:30.275Z,99709.45
2019-02-20T04:12:59.358Z,99716.27
2019-02-20T04:15:28.454Z,99719.34
2019-02-20T04:17:57.578Z,99718.18
2019-02-20T04:20:26.697Z,99716.70
2019-02-20T04:22:55.859Z,99722.52
2019-02-20T04:25:28.715Z,99721.74
2019-02-20T04:28:00.261Z,99723.87
2019-02-20T04:30:30.458Z,99727.52
2019-02-20T04:32:59.591Z,99731.50
2019-02-20T04:35:28.643Z,99727.36
2019-02-20T04:38:01.713Z,99727.58
2019-02-20T04:40:32.152Z,99729.95
2019-02-20T04:43:01.317Z,99722.44
2019-02-20T04:45:30.535Z,99725.22
2019-02-20T04:48:00.231Z,99723.78
2019-02-20T04:50:29.318Z,99729.91
2019-02-20T04:52:58.431Z,99739.89
2019-02-20T04:55:27.570Z,99737.77
2019-02-20T04:58:19.763Z,99741.91
2019-02-20T05:00:50.278Z,99737.81
2019-02-20T05:03:19.500Z,99742.67
2019-02-20T05:05:48.574Z,99745.62
2019-02-20T05:08:17.661Z,99746.53
2019-02-20T05:10:46.730Z,99741.03
2019-02-20T05:13:15.877Z,99740.80
2019-02-20T05:15:44.983Z,99741.24
2019-02-20T05:18:16.427Z,99751.94
2019-02-20T05:20:45.527Z,99737.04
2019-02-20T05:23:14.624Z,99744.50
2019-02-20T05:25:43.739Z,99739.64
2019-02-20T05:28:12.817Z,99740.28
2019-02-20T05:30:41.912Z,99744.44
2019-02-20T05:33:11.220Z,99746.52
2019-02-20T05:35:40.337Z,99743.77
2019-02-20T05:38:09.442Z,99748.11
2019-02-20T05:40:38.579Z,99754.28
2019-02-20T05:43:10.025Z,99748.34
2019-02-20T05:45:39.192Z,99749.55
2019-02-20T05:48:08.437Z,99747.91
2019-02-20T05:50:37.537Z,99750.84
2019-02-20T05:53:06.756Z,99749.77
2019-02-20T05:55:35.877Z,99758.05
2019-02-20T05:58:04.942Z,99752.98
2019-02-20T06:00:34.021Z,99754.28
2019-02-20T06:03:04.864Z,99751.83
2019-02-20T06:05:33.906Z,99755.06
2019-02-20T06:08:03.024Z,99756.03
2019-02-20T06:10:32.267Z,99760.00
2019-02-20T06:13:05.306Z,99762.41
2019-02-20T06:15:35.599Z,99757.66
2019-02-20T06:18:06.988Z,99760.99
2019-02-20T06:20:37.644Z,99764.78
2019-02-20T06:23:06.731Z,99770.20
2019-02-20T06:25:35.886Z,99771.50
2019-02-20T06:28:04.966Z,99765.27
2019-02-20T06:30:36.363Z,99765.11
2019-02-20T06:33:05.423Z,99764.55
2019-02-20T06:35:34.613Z,99765.60
2019-02-20T06:38:03.687Z,99770.88
2019-02-20T06:40:32.824Z,99778.34
2019-02-20T06:43:01.958Z,99782.29
2019-02-20T06:45:33.105Z,99783.35
2019-02-20T06:48:02.137Z,99788.86
2019-02-20T06:50:32.375Z,99789.48
2019-02-20T06:53:01.390Z,99793.45
2019-02-20T06:55:30.569Z,99792.25
2019-02-20T06:57:59.671Z,99789.28
2019-02-20T07:00:31.052Z,99798.57
2019-02-20T07:03:00.129Z,99796.91
2019-02-20T07:05:33.832Z,99800.42
2019-02-20T07:08:55.368Z,99804.60
2019-02-20T07:12:17.097Z,99797.88
2019-02-20T07:15:32.346Z,99806.70
2019-02-20T07:18:40.198Z,99813.11
2019-02-20T07:21:45.985Z,99816.06
2019-02-20T07:24:29.018Z,99818.29
2019-02-20T07:27:20.219Z,99815.29
2019-02-20T07:30:02.829Z,99817.36
2019-02-20T07:32:32.721Z,99820.91
2019-02-20T07:35:01.858Z,99822.73
2019-02-20T07:37:33.241Z,99820.18
2019-02-20T07:40:06.706Z,99820.23
2019-02-20T07:42:36.139Z,99823.41
2019-02-20T07:45:05.586Z,99816.81
2019-02-20T07:47:34.818Z,99829.08
2019-02-20T07:50:03.963Z,99829.22
2019-02-20T07:52:33.069Z,99828.67
2019-02-20T07:55:02.172Z,99834.03
2019-02-20T07:57:31.751Z,99830.88
2019-02-20T08:00:02.907Z,99833.11
2019-02-20T08:02:32.320Z,99840.10
2019-02-20T08:05:01.412Z,99844.15
2019-02-20T08:07:32.125Z,99848.61
2019-02-20T08:10:03.751Z,99841.59
2019-02-20T08:12:32.872Z,99844.09
2019-02-20T08:15:03.821Z,99842.19
2019-02-20T08:17:32.942Z,99850.42
2019-02-20T08:20:02.926Z,99853.14
2019-02-20T08:22:33.319Z,99862.36
2019-02-20T08:25:02.501Z,99865.18
2019-02-20T08:27:31.656Z,99873.39
2019-02-20T08:30:01.990Z,99864.13
2019-02-20T08:32:31.087Z,99867.72
2019-02-20T08:35:00.263Z,99788.25
2019-02-20T08:37:29.454Z,99866.22
2019-02-20T08:39:58.501Z,99879.20
2019-02-20T08:42:27.628Z,99881.18
2019-02-20T08:44:56.720Z,99887.59
2019-02-20T08:47:25.891Z,99884.41
2019-02-20T08:49:54.967Z,99883.59
2019-02-20T08:52:24.072Z,99883.88
2019-02-20T08:54:53.085Z,99882.64
2019-02-20T08:57:22.249Z,99882.57
2019-02-20T08:59:51.825Z,99881.09
2019-02-20T09:02:20.926Z,99881.78
2019-02-20T09:04:50.007Z,99871.82
2019-02-20T09:07:19.220Z,99882.64
2019-02-20T09:09:48.324Z,99876.67
2019-02-20T09:12:17.485Z,99879.88
2019-02-20T09:14:46.571Z,99885.89
2019-02-20T09:17:15.597Z,99888.28
2019-02-20T09:19:44.697Z,99884.84
2019-02-20T09:22:13.771Z,99888.13
2019-02-20T09:24:42.910Z,99883.14
2019-02-20T09:27:13.120Z,99886.03
2019-02-20T09:29:42.255Z,99889.70
2019-02-20T09:32:11.722Z,99890.37
2019-02-20T09:34:40.859Z,99897.94
2019-02-20T09:37:09.922Z,99896.63
2019-02-20T09:39:39.322Z,99899.56
2019-02-20T09:42:13.536Z,99901.34
2019-02-20T09:44:51.625Z,99898.02
2019-02-20T09:47:22.746Z,99897.27
2019-02-20T09:49:52.925Z,99904.22
2019-02-20T09:52:23.637Z,99910.83
2019-02-20T09:54:52.702Z,99906.89
2019-02-20T09:57:21.804Z,99914.11
2019-02-20T09:59:53.222Z,99914.38
2019-02-20T10:02:22.283Z,99918.16
2019-02-20T10:04:54.996Z,99924.70
2019-02-20T10:07:24.083Z,99915.45
2019-02-20T10:09:54.330Z,99922.34
2019-02-20T10:12:23.382Z,99921.20
2019-02-20T10:14:52.545Z,99918.00
2019-02-20T10:17:21.594Z,99926.73
2019-02-20T10:19:50.707Z,99926.09
2019-02-20T10:22:19.786Z,99918.47
2019-02-20T10:24:48.975Z,99923.02
2019-02-20T10:27:18.041Z,99915.70
2019-02-20T10:29:47.164Z,99914.51
2019-02-20T10:32:16.289Z,99906.37
2019-02-20T10:34:45.392Z,99920.77
2019-02-20T10:37:14.491Z,99918.40
2019-02-20T10:39:43.555Z,99913.05
2019-02-20T10:42:12.679Z,99914.53
2019-02-20T10:44:41.818Z,99909.75
2019-02-20T10:47:10.982Z,99913.56
2019-02-20T10:49:41.195Z,99907.72
2019-02-20T10:52:10.728Z,99907.88
2019-02-20T10:54:39.842Z,99910.99
2019-02-20T10:57:10.426Z,99910.21
2019-02-20T10:59:41.395Z,99905.36
2019-02-20T11:02:10.725Z,99908.42
2019-02-20T11:04:39.756Z,99901.80
2019-02-20T11:07:08.978Z,99895.90
2019-02-20T11:09:38.118Z,99891.50
2019-02-20T11:12:07.258Z,99895.88
2019-02-20T11:14:37.739Z,99892.20
2019-02-20T11:17:06.991Z,99895.06
2019-02-20T11:19:36.092Z,99889.05
2019-02-20T11:22:05.793Z,99881.55
2019-02-20T11:24:34.873Z,99887.04
2019-02-20T11:27:04.883Z,99876.56
2019-02-20T11:29:33.968Z,99876.30
2019-02-20T11:32:03.052Z,99870.98
2019-02-20T11:34:32.154Z,99866.84
2019-02-20T11:37:03.637Z,99871.30
2019-02-20T11:39:37.667Z,99866.55
2019-02-20T11:42:04.478Z,99871.52
2019-02-20T11:44:34.004Z,99867.81
2019-02-20T11:47:04.818Z,99866.02
2019-02-20T11:49:35.125Z,99864.34
2019-02-20T11:52:04.489Z,99862.91
2019-02-20T11:54:33.580Z,99860.08
2019-02-20T11:57:02.795Z,99858.83
2019-02-20T11:59:32.952Z,99856.58
2019-02-20T12:02:02.076Z,99860.42
2019-02-20T12:04:33.179Z,99861.77
2019-02-20T12:07:02.218Z,99858.59
2019-02-20T12:09:31.318Z,99851.72
2019-02-20T12:12:00.421Z,99852.80
2019-02-20T12:14:29.483Z,99854.14
2019-02-20T12:16:58.564Z,99860.61
2019-02-20T12:19:30.877Z,99854.55
2019-02-20T12:21:59.963Z,99850.27
2019-02-20T12:24:29.056Z,99854.69
2019-02-20T12:26:58.118Z,99852.09
2019-02-20T12:29:27.215Z,99845.20
2019-02-20T12:31:56.312Z,99845.26
2019-02-20T12:34:25.429Z,99841.05
2019-02-20T12:36:54.497Z,99840.28
2019-02-20T12:39:23.631Z,99833.84
2019-02-20T12:41:57.874Z,99837.39
2019-02-20T12:44:26.996Z,99839.86
2019-02-20T12:46:56.072Z,99846.13
2019-02-20T12:49:25.148Z,99840.33
2019-02-20T12:51:55.676Z,99844.62
2019-02-20T12:54:25.898Z,99837.89
2019-02-20T12:56:55.225Z,99836.30
2019-02-20T12:59:24.332Z,99832.59
2019-02-20T13:01:53.600Z,99831.34
2019-02-20T13:04:24.726Z,99677.72
2019-02-20T13:06:59.480Z,99838.67
2019-02-20T13:09:25.238Z,99832.95
2019-02-20T13:11:55.617Z,99819.04
2019-02-20T13:14:24.712Z,99826.30
2019-02-20T13:16:53.785Z,99818.33
2019-02-20T13:19:26.952Z,99816.84
2019-02-20T13:21:57.361Z,99815.52
2019-02-20T13:24:26.397Z,99827.55
2019-02-20T13:26:55.443Z,99820.09
2019-02-20T13:29:24.505Z,99823.75
2019-02-20T13:31:53.562Z,99832.34
2019-02-20T13:34:22.644Z,99828.09
2019-02-20T13:36:51.717Z,99822.40
2019-02-20T13:39:20.892Z,99818.59
2019-02-20T13:41:52.553Z,99817.55
2019-02-20T13:44:21.647Z,99815.47
2019-02-20T13:46:50.764Z,99811.00
2019-02-20T13:49:19.903Z,99818.02
2019-02-20T13:51:48.953Z,99824.52
2019-02-20T13:54:18.068Z,99816.72
2019-02-20T13:56:47.957Z,99818.84
2019-02-20T13:59:17.063Z,99817.56
2019-02-20T14:01:47.343Z,99823.28
2019-02-20T14:04:16.741Z,99810.59
2019-02-20T14:06:45.839Z,99811.83
2019-02-20T14:09:15.264Z,99813.91
2019-02-20T14:11:44.437Z,99813.86
2019-02-20T14:14:14.070Z,99809.17
2019-02-20T14:16:43.139Z,99816.40
2019-02-20T14:19:12.473Z,99811.97
2019-02-20T14:21:41.586Z,99804.81
2019-02-20T14:24:10.735Z,99806.37
2019-02-20T14:26:39.834Z,99807.77
2019-02-20T14:29:08.911Z,99802.76
2019-02-20T14:31:38.246Z,99802.69
2019-02-20T14:34:09.638Z,99804.23
2019-02-20T14:36:38.880Z,99799.38
2019-02-20T14:39:08.040Z,99800.25
2019-02-20T14:41:37.182Z,99801.75
2019-02-20T14:44:06.243Z,99802.67
2019-02-20T14:46:36.324Z,99804.13
2019-02-20T14:49:09.406Z,99798.68
2019-02-20T14:51:38.332Z,99801.55
2019-02-20T14:54:07.404Z,99798.63
2019-02-20T14:56:36.519Z,99794.44
2019-02-20T14:59:07.732Z,99798.40
2019-02-20T15:01:36.877Z,99790.17
2019-02-20T15:04:05.943Z,99796.77
2019-02-20T15:06:34.989Z,99798.01
2019-02-20T15:09:05.592Z,99792.79
2019-02-20T15:11:34.699Z,99796.59
2019-02-20T15:14:03.782Z,99798.52
2019-02-20T15:16:36.971Z,99796.98
2019-02-20T15:19:06.497Z,99795.31
2019-02-20T15:21:36.889Z,99798.29
2019-02-20T15:24:06.219Z,99798.80
2019-02-20T15:26:35.334Z,99793.83
2019-02-20T15:29:04.378Z,99788.42
2019-02-20T15:31:37.262Z,99793.56
2019-02-20T15:34:06.755Z,99796.75
2019-02-20T15:36:35.899Z,99800.66
2019-02-20T15:39:05.658Z,99806.68
2019-02-20T15:41:36.327Z,99807.89
2019-02-20T15:44:09.067Z,99808.15
2019-02-20T15:46:40.718Z,99805.76
2019-02-20T15:49:09.837Z,99801.28
2019-02-20T15:51:39.103Z,99809.15
2019-02-20T15:54:08.231Z,99806.72
2019-02-20T15:56:37.347Z,99810.50
2019-02-20T15:59:07.052Z,99811.93
2019-02-20T16:01:36.220Z,99807.36
2019-02-20T16:04:05.500Z,99810.14
2019-02-20T16:06:34.626Z,99810.13
2019-02-20T16:09:04.509Z,99810.95
2019-02-20T16:11:33.597Z,99816.73
2019-02-20T16:14:02.676Z,99818.57
2019-02-20T16:16:31.813Z,99816.26
2019-02-20T16:19:00.922Z,99820.98
2019-02-20T16:21:30.050Z,99819.04
2019-02-20T16:23:59.220Z,99821.42
2019-02-20T16:26:28.316Z,99820.71
2019-02-20T16:28:57.692Z,99826.12
2019-02-20T16:31:44.918Z,99829.75
2019-02-20T16:34:15.674Z,99826.56
2019-02-20T16:36:45.107Z,99822.12
2019-02-20T16:39:15.496Z,99825.93
2019-02-20T16:42:04.255Z,99828.91
2019-02-20T16:44:33.776Z,99824.67
2019-02-20T16:47:02.827Z,99830.69
2019-02-20T16:49:32.928Z,99830.03
2019-02-20T16:52:05.043Z,99828.67
2019-02-20T16:54:34.925Z,99829.11
2019-02-20T16:57:06.294Z,99825.27
2019-02-20T16:59:35.598Z,99632.42
2019-02-20T17:02:07.631Z,99834.99
2019-02-20T17:04:36.732Z,99837.05
2019-02-20T17:07:08.069Z,99839.60
2019-02-20T17:09:39.562Z,99844.98
2019-02-20T17:12:08.737Z,99840.98
2019-02-20T17:14:37.877Z,99844.36
2019-02-20T17:17:07.055Z,99845.11
2019-02-20T17:19:36.215Z,99846.19
2019-02-20T17:22:07.329Z,99849.41
2019-02-20T17:24:41.723Z,99855.63
2019-02-20T17:27:12.848Z,99863.55
2019-02-20T17:29:42.053Z,99860.91
2019-02-20T17:32:12.727Z,99866.02
2019-02-20T17:34:41.928Z,99867.42
2019-02-20T17:37:11.160Z,99872.16
2019-02-20T17:39:40.541Z,99875.89
2019-02-20T17:42:09.628Z,99876.59
2019-02-20T17:44:38.725Z,99886.36
2019-02-20T17:47:07.911Z,99885.14
2019-02-20T17:49:38.220Z,99883.95
2019-02-20T17:52:09.325Z,99881.05
2019-02-20T17:54:41.070Z,99880.75
2019-02-20T17:57:12.173Z,99880.31
2019-02-20T17:59:41.217Z,99886.71
2019-02-20T18:02:11.386Z,99885.94
2019-02-20T18:04:58.446Z,99892.44
2019-02-20T18:07:49.638Z,99893.16
2019-02-20T18:10:14.942Z,99898.51
2019-02-20T18:12:45.480Z,99905.46
2019-02-20T18:15:22.448Z,99910.02
2019-02-20T18:17:52.700Z,99912.73
2019-02-20T18:20:25.236Z,99910.83
2019-02-20T18:23:00.267Z,99911.02
2019-02-20T18:25:30.439Z,99913.28
2019-02-20T18:27:59.920Z,99919.36
2019-02-20T18:30:38.710Z,99916.45
2019-02-20T18:33:08.779Z,99918.44
2019-02-20T18:35:41.950Z,99921.97
2019-02-20T18:38:11.794Z,99917.06
2019-02-20T18:40:42.632Z,99926.03
2019-02-20T18:43:12.188Z,99931.53
2019-02-20T18:45:41.629Z,99939.48
2019-02-20T18:48:14.922Z,99937.68
2019-02-20T18:50:45.363Z,99934.41
2019-02-20T18:53:14.471Z,99934.00
2019-02-20T18:55:43.656Z,99940.27
2019-02-20T18:58:12.826Z,99937.83
2019-02-20T19:00:42.183Z,99948.35
2019-02-20T19:03:14.862Z,99948.35
2019-02-20T19:05:43.997Z,99956.93
2019-02-20T19:08:41.520Z,99956.66
2019-02-20T19:11:40.207Z,99952.55
2019-02-20T19:14:52.801Z,99959.00
2019-02-20T19:18:13.029Z,99959.17
2019-02-20T19:20:49.322Z,99959.67
2019-02-20T19:24:10.937Z,99967.89
2019-02-20T19:27:30.211Z,99966.78
2019-02-20T19:30:40.468Z,99958.67
2019-02-20T19:33:46.390Z,99962.66
2019-02-20T19:36:58.555Z,99961.09
2019-02-20T19:40:01.575Z,99966.72
2019-02-20T19:43:10.139Z,99963.78
2019-02-20T19:46:26.298Z,99968.66
2019-02-20T19:49:45.594Z,99970.36
2019-02-20T19:52:47.446Z,99970.05
2019-02-20T19:55:30.889Z,99967.28
2019-02-20T19:58:24.143Z,99973.22
2019-02-20T20:01:39.785Z,99968.03
2019-02-20T20:04:24.782Z,99968.59
2019-02-20T20:07:27.374Z,99978.41
2019-02-20T20:11:02.161Z,99976.54
2019-02-20T20:14:05.191Z,99980.39
2019-02-20T20:16:59.877Z,99974.22
2019-02-20T20:19:45.121Z,99975.66
2019-02-20T20:23:07.792Z,99972.77
2019-02-20T20:26:11.642Z,99975.55
2019-02-20T20:29:26.225Z,99970.99
2019-02-20T20:32:21.781Z,99973.70
2019-02-20T20:35:54.042Z,99979.37
2019-02-20T20:38:45.164Z,99972.77
2019-02-20T20:42:04.478Z,99976.74
2019-02-20T20:45:02.900Z,99978.70
2019-02-20T20:48:11.979Z,99981.36
2019-02-20T20:50:47.482Z,99991.63
2019-02-20T20:54:01.065Z,99988.63
2019-02-20T20:57:01.106Z,99986.70
2019-02-20T21:00:26.409Z,99986.20
2019-02-20T21:03:02.477Z,99982.99
2019-02-20T21:06:11.877Z,99992.84
2019-02-20T21:09:10.278Z,100001.42
2019-02-20T21:12:22.616Z,99987.60
2019-02-20T21:15:08.294Z,99999.15
2019-02-20T21:18:11.706Z,100007.28
2019-02-20T21:21:20.746Z,100001.06
2019-02-20T21:24:54.385Z,100000.74
2019-02-20T21:28:05.362Z,100003.64
2019-02-20T21:31:03.256Z,100005.63
2019-02-20T21:34:14.584Z,100004.91
2019-02-20T21:37:15.879Z,100005.30
2019-02-20T21:40:18.188Z,100012.39
2019-02-20T21:43:08.289Z,100009.50
2019-02-20T21:45:50.986Z,100009.29
2019-02-20T21:48:58.438Z,100007.00
2019-02-20T21:51:57.922Z,100006.81
2019-02-20T21:55:05.480Z,100007.02
2019-02-20T21:58:21.580Z,100010.89
2019-02-20T22:01:20.008Z,100014.67
2019-02-20T22:04:27.386Z,100012.52
2019-02-20T22:07:43.427Z,100015.46
2019-02-20T22:11:11.251Z,100013.56
2019-02-20T22:14:38.525Z,100016.13
2019-02-20T22:17:27.382Z,100017.44
2019-02-20T22:20:32.928Z,100019.19
2019-02-20T22:23:29.265Z,100025.72
2019-02-20T22:26:35.788Z,100021.62
2019-02-20T22:29:49.305Z,100024.16
2019-02-20T22:32:46.399Z,100026.14
2019-02-20T22:35:36.865Z,100020.43
2019-02-20T22:38:42.858Z,100026.98
2019-02-20T22:41:19.391Z,100021.46
2019-02-20T22:44:26.104Z,100029.21
2019-02-20T22:47:11.063Z,100028.21
2019-02-20T22:50:15.054Z,100033.17
2019-02-20T22:53:23.299Z,100028.80
2019-02-20T22:56:48.797Z,100026.52
2019-02-20T23:00:02.645Z,100031.95
2019-02-20T23:03:28.306Z,100034.34
2019-02-20T23:06:33.299Z,100035.41
2019-02-20T23:09:49.728Z,100034.27
2019-02-20T23:12:39.690Z,100039.91
2019-02-20T23:15:08.813Z,100045.48
2019-02-20T23:17:39.937Z,100050.13
2019-02-20T23:20:11.364Z,100055.22
2019-02-20T23:22:41.589Z,100059.34
2019-02-20T23:25:10.885Z,100058.91
2019-02-20T23:27:40.123Z,100052.89
2019-02-20T23:30:12.997Z,100049.35
2019-02-20T23:32:43.321Z,100059.09
2019-02-20T23:35:14.846Z,100059.88
2019-02-20T23:37:44.072Z,100052.07
2019-02-20T23:40:13.195Z,100051.68
2019-02-20T23:42:45.521Z,100053.22
2019-02-20T23:45:16.280Z,100060.31
2019-02-20T23:47:45.475Z,100059.09
2019-02-20T23:50:14.674Z,100062.55
2019-02-20T23:52:45.132Z,100066.13
2019-02-20T23:55:17.706Z,100059.83
2019-02-20T23:57:46.994Z,100067.34
